Airfield :







YOU CAN JOIN US ON...

 
LOGIN :

Register | Disclaimer

   EN    FR    IT 

 









Legend :    VFR   Marginal VFR   IFR   Intensive IFR   Very Intensive IFR
Visi :
Ceiling :
>= 8 km
>= 3000ft
5 to 8 km
1000 to 3000 ft
1500m to 5 km
500 to 1000 ft
800 to 1500m
200 to 500 ft
< 800m
< 200 ft
Symbols :   Thunderstorms  Fog  Heavy snow  Heavy precipitations  Wind > 20 kt






- Airport Elevation : 59 ft
- IATA code : SDQ


MDSD - Las Americas Int.

CURRENT METAR :
  • 231900Z 19008KT 9999 FEW023 30/18 Q1014 NOSIG

EXPIRED METARs :
  • 231800Z 20008KT 9999 FEW022 30/19 Q1015 NOSIG
  • 231700Z 20012KT 170V230 9999 FEW021 30/18 Q1016 NOSIG
  • 231600Z 06006KT 9999 SCT020 27/16 Q1017 NOSIG
  • 231500Z 06008KT 9999 FEW019 27/17 Q1017 NOSIG

TAF TAF MDSD
Valid from the 23 at 18:00 until the 24 at 18:00 UTC


231600Z 2318/2418 15010KT 9999 SCT023
BECMG 2404/2406 06005KT
MDCS FIR / North America



MET'MAP, your aeronautical weather chart ! - Copyright ORBIFLY December 2007 - Disclaimer

ORBIFLY MET'MAP TEAM :

Programming & Development : Alexandra Zaïnal
Original concept : Baudouin d'Aumeries
Technical & hardware support : Manuel Goepfert
Assistance : Marc-Olivier Méhu




SOURCES & CREDITS :

   NOAA